Terminal Aerodrome Forecast
Issued by NWS

Home | Current Version | Previous Version | Text Only | Print | Product List | Glossary On
Versions: 1 2 3 4 5 6 7 8 9 10 11 12 13 14 15 16 17 18 19 20 21 22 23 24 25 26 27 28 29 30 31 32 33 34 35 36 37 38 39 40 41 42 43 44 45 46 47 48
000
FTUS45 KBOU 022336
TAFAPA
TAF
KAPA 022336Z 0300/0324 VRB05KT P6SM FEW090 SCT120 BKN200
     FM030100 17008KT P6SM VCSH SCT090 BKN120
      TEMPO 0301/0303 VRB15G25KT BKN090
     FM030300 20010KT P6SM SCT100 SCT150
     FM031500 29007KT P6SM FEW080 BKN150
     FM031800 04007KT P6SM SCT080 BKN120
     FM032100 15008KT P6SM VCSH BKN080 PROB30 0321/0324 VRB20G30KT
      -TSRA BKN080CB=

USA.gov is the U.S. government's official web portal to all federal, state and local government web resources and services.